Time;durP1;ratioP1;P1;durP2;ratioP2;P2;SDS_P1;SDS_P2;PMS_P1;PMS_P2;Temp;Humidity;BMP_temperature;BMP_pressure;BME280_temperature;BME280_humidity;BME280_pressure;Samples;Min_cycle;Max_cycle;Signal;HPM_P1;HPM_P2
2021/08/21 00:01:10;;;;;;;4.00;3.60;;;19.70;71.40;;;;;;1082703;39;20401;-69
2021/08/21 00:02:32;;;;;;;4.78;3.92;;;19.70;71.40;;;;;;1082515;54;20027;-69
2021/08/21 00:03:54;;;;;;;4.20;3.80;;;19.70;71.40;;;;;;1082532;54;20517;-69
2021/08/21 00:05:15;;;;;;;5.50;4.30;;;19.70;71.50;;;;;;1082686;54;20030;-70
2021/08/21 00:06:36;;;;;;;3.95;3.65;;;19.70;71.60;;;;;;1083027;39;20420;-70
2021/08/21 00:07:56;;;;;;;4.13;3.75;;;19.70;71.50;;;;;;1082438;54;20033;-69
2021/08/21 00:09:17;;;;;;;4.50;3.63;;;19.70;71.60;;;;;;1082685;54;20165;-69
2021/08/21 00:10:38;;;;;;;3.70;3.40;;;19.70;71.60;;;;;;1082361;54;20042;-70
2021/08/21 00:12:00;;;;;;;5.15;3.75;;;19.70;71.60;;;;;;1082435;54;20030;-69
2021/08/21 00:13:20;;;;;;;4.28;3.85;;;19.60;71.50;;;;;;1082500;47;20538;-69
2021/08/21 00:14:41;;;;;;;4.25;3.92;;;19.60;71.50;;;;;;1083026;54;20072;-70
2021/08/21 00:16:02;;;;;;;6.28;4.38;;;19.60;71.50;;;;;;1082991;39;20077;-69
2021/08/21 00:17:23;;;;;;;4.53;4.07;;;19.60;71.60;;;;;;1082570;54;20026;-69
2021/08/21 00:18:44;;;;;;;4.90;4.43;;;19.60;71.70;;;;;;1082711;54;20058;-69
2021/08/21 00:20:06;;;;;;;5.15;4.65;;;19.60;71.70;;;;;;1082909;54;20090;-69
2021/08/21 00:21:28;;;;;;;5.30;4.80;;;19.60;71.90;;;;;;1082419;54;20030;-69
2021/08/21 00:22:49;;;;;;;5.10;4.60;;;19.60;71.90;;;;;;1082312;54;20030;-69
2021/08/21 00:24:10;;;;;;;5.20;4.63;;;19.60;72.00;;;;;;1082538;54;20577;-69
2021/08/21 00:25:31;;;;;;;4.93;4.53;;;19.50;71.90;;;;;;1082949;54;20026;-69
2021/08/21 00:26:52;;;;;;;5.30;4.63;;;19.50;71.90;;;;;;1082103;54;20759;-70
2021/08/21 00:28:13;;;;;;;4.60;4.20;;;19.50;71.90;;;;;;1082532;54;20041;-69
2021/08/21 00:29:34;;;;;;;4.43;4.03;;;19.50;71.90;;;;;;1083036;39;20401;-70
2021/08/21 00:30:55;;;;;;;4.63;4.22;;;19.50;71.90;;;;;;1082715;54;20076;-69
2021/08/21 00:32:16;;;;;;;4.80;4.35;;;19.50;72.20;;;;;;1082440;54;20113;-69
2021/08/21 00:33:37;;;;;;;4.53;4.13;;;19.50;72.10;;;;;;1082712;39;20446;-69
2021/08/21 00:34:58;;;;;;;5.90;5.00;;;19.40;72.80;;;;;;1082673;54;20483;-69
2021/08/21 00:36:18;;;;;;;4.93;4.43;;;19.50;72.40;;;;;;1082989;54;20044;-69
2021/08/21 00:37:39;;;;;;;5.10;4.60;;;19.40;72.40;;;;;;1082583;54;20757;-69
2021/08/21 00:39:00;;;;;;;4.72;4.32;;;19.40;72.40;;;;;;1082366;54;20022;-69
2021/08/21 00:40:21;;;;;;;5.32;4.82;;;19.40;73.10;;;;;;1083512;31;20471;-69
2021/08/21 00:41:43;;;;;;;4.57;4.18;;;19.40;72.50;;;;;;1082743;54;20034;-70
2021/08/21 00:43:04;;;;;;;4.80;4.35;;;19.40;72.50;;;;;;1082588;54;20065;-69
2021/08/21 00:44:25;;;;;;;5.43;4.35;;;19.40;72.50;;;;;;1082491;54;20045;-69
2021/08/21 00:45:46;;;;;;;4.18;3.83;;;19.40;72.60;;;;;;1082802;54;20082;-69
2021/08/21 00:47:13;;;;;;;4.32;3.78;;;19.40;72.50;;;;;;1082441;54;20498;-69
2021/08/21 00:48:34;;;;;;;4.25;3.72;;;19.30;72.60;;;;;;1082625;54;20027;-69
2021/08/21 00:49:55;;;;;;;4.28;3.88;;;19.30;72.40;;;;;;1082332;54;20034;-69
2021/08/21 00:51:16;;;;;;;4.30;3.90;;;19.30;72.40;;;;;;1082826;54;20034;-69
2021/08/21 00:52:38;;;;;;;4.55;3.97;;;19.30;72.30;;;;;;1082835;54;20030;-69
2021/08/21 00:53:59;;;;;;;4.45;4.07;;;19.30;72.40;;;;;;1082673;54;20026;-69
2021/08/21 00:55:20;;;;;;;4.63;3.85;;;19.20;72.40;;;;;;1082852;54;20490;-69
2021/08/21 00:56:41;;;;;;;4.43;4.03;;;19.30;72.50;;;;;;1082582;54;20038;-70
2021/08/21 00:58:02;;;;;;;5.25;4.05;;;19.20;72.40;;;;;;1083010;54;20482;-69
2021/08/21 00:59:23;;;;;;;6.90;4.63;;;19.20;72.50;;;;;;1082351;54;20061;-69
2021/08/21 01:00:44;;;;;;;5.50;4.93;;;19.20;72.60;;;;;;1082336;54;20023;-69
2021/08/21 01:02:05;;;;;;;5.22;4.72;;;19.20;72.60;;;;;;1083010;54;20031;-69
2021/08/21 01:03:26;;;;;;;5.53;5.03;;;19.20;72.70;;;;;;1082424;54;20039;-69
2021/08/21 01:04:51;;;;;;;6.03;4.88;;;19.20;72.80;;;;;;1082428;54;20030;-69
2021/08/21 01:06:12;;;;;;;4.95;4.47;;;19.20;72.80;;;;;;1082239;54;20030;-69
2021/08/21 01:07:35;;;;;;;5.75;4.82;;;19.20;72.70;;;;;;1082937;54;20107;-69
2021/08/21 01:08:55;;;;;;;5.53;4.72;;;19.20;72.70;;;;;;1085888;54;20086;-69
2021/08/21 01:10:19;;;;;;;5.60;4.90;;;19.20;72.80;;;;;;1084563;54;20046;-69
2021/08/21 01:11:40;;;;;;;5.35;4.85;;;19.10;72.90;;;;;;1084509;54;20031;-69
2021/08/21 01:13:01;;;;;;;5.00;4.60;;;19.10;72.80;;;;;;1086762;54;20049;-69
2021/08/21 01:14:24;;;;;;;5.97;4.63;;;19.10;72.90;;;;;;1083203;54;20019;-69
2021/08/21 01:15:45;;;;;;;6.13;4.72;;;19.10;72.90;;;;;;1083955;54;20042;-70
2021/08/21 01:17:07;;;;;;;6.18;5.57;;;19.10;72.90;;;;;;1085702;39;20338;-69
2021/08/21 01:18:28;;;;;;;5.55;5.05;;;19.10;73.00;;;;;;1084084;54;20022;-70
2021/08/21 01:19:51;;;;;;;4.75;4.35;;;19.10;73.10;;;;;;1082825;54;20034;-70
2021/08/21 01:21:12;;;;;;;5.15;4.53;;;19.10;73.20;;;;;;1082765;54;20030;-69
2021/08/21 01:22:34;;;;;;;4.95;4.53;;;19.10;73.20;;;;;;1082625;54;20041;-69
2021/08/21 01:23:55;;;;;;;7.50;5.32;;;19.10;73.20;;;;;;1082413;54;20034;-69
2021/08/21 01:25:20;;;;;;;5.13;4.63;;;19.00;73.10;;;;;;1082606;54;20501;-69
2021/08/21 01:26:51;;;;;;;5.80;5.22;;;19.10;73.20;;;;;;1082259;54;20067;-69
2021/08/21 01:28:12;;;;;;;5.32;4.82;;;19.10;73.40;;;;;;1082599;39;20347;-69
2021/08/21 01:29:33;;;;;;;6.63;5.57;;;19.00;72.90;;;;;;1082451;54;20034;-69
2021/08/21 01:30:54;;;;;;;5.80;5.30;;;19.00;73.10;;;;;;1082574;54;20079;-69
2021/08/21 01:32:16;;;;;;;6.68;5.35;;;19.00;73.10;;;;;;1082521;54;20038;-69
2021/08/21 01:33:38;;;;;;;7.85;5.20;;;19.00;73.20;;;;;;1082308;54;20037;-69
2021/08/21 01:34:59;;;;;;;6.07;5.10;;;19.00;73.20;;;;;;1082429;54;20054;-69
2021/08/21 01:36:20;;;;;;;6.13;5.53;;;19.00;73.20;;;;;;1082702;54;20030;-69
2021/08/21 01:37:41;;;;;;;5.28;4.78;;;19.00;73.30;;;;;;1082752;54;20816;-69
2021/08/21 01:39:02;;;;;;;6.28;4.85;;;19.00;73.30;;;;;;1082789;39;20402;-69
2021/08/21 01:40:23;;;;;;;4.57;4.18;;;19.00;73.30;;;;;;1083274;39;20359;-69
2021/08/21 01:41:44;;;;;;;5.95;4.68;;;18.90;73.20;;;;;;1082641;54;20037;-69
2021/08/21 01:43:05;;;;;;;5.80;4.72;;;18.90;73.20;;;;;;1082100;47;20078;-69
2021/08/21 01:44:26;;;;;;;4.72;4.30;;;18.90;73.10;;;;;;1082065;54;20114;-69
2021/08/21 01:45:48;;;;;;;5.75;4.90;;;18.90;73.10;;;;;;1082540;54;20511;-69
2021/08/21 01:47:10;;;;;;;4.88;4.47;;;18.90;73.30;;;;;;1082764;54;20072;-69
2021/08/21 01:48:31;;;;;;;5.00;4.50;;;18.90;73.30;;;;;;1082595;54;20121;-69
2021/08/21 01:49:54;;;;;;;4.90;4.40;;;18.90;73.30;;;;;;1082296;54;20054;-69
2021/08/21 01:51:16;;;;;;;5.20;4.05;;;18.90;73.30;;;;;;1082078;54;20034;-69
2021/08/21 01:52:37;;;;;;;5.20;4.70;;;18.90;73.20;;;;;;1082514;54;20035;-69
2021/08/21 01:53:58;;;;;;;5.35;4.93;;;18.90;73.20;;;;;;1082360;54;20027;-70
2021/08/21 01:55:21;;;;;;;5.18;4.70;;;18.90;73.30;;;;;;1082393;54;20034;-69
2021/08/21 01:56:55;;;;;;;6.10;4.82;;;18.90;73.30;;;;;;1082287;54;20034;-69
2021/08/21 01:58:20;;;;;;;6.90;5.25;;;18.90;73.80;;;;;;1082631;54;20022;-69
2021/08/21 01:59:43;;;;;;;6.90;5.80;;;18.90;73.40;;;;;;1082518;54;20062;-69
2021/08/21 02:01:04;;;;;;;5.60;5.10;;;18.80;73.30;;;;;;1082023;54;20034;-69
2021/08/21 02:02:26;;;;;;;7.28;5.38;;;18.80;73.20;;;;;;1082453;54;20030;-70
2021/08/21 02:03:47;;;;;;;6.55;5.05;;;18.80;73.30;;;;;;1082601;54;20034;-69
2021/08/21 02:05:09;;;;;;;5.75;5.07;;;18.80;73.40;;;;;;1082412;54;20027;-69
2021/08/21 02:06:29;;;;;;;6.55;5.47;;;18.80;73.30;;;;;;1082224;54;20022;-69
2021/08/21 02:07:51;;;;;;;5.78;4.97;;;18.80;73.40;;;;;;1082354;54;20028;-69
2021/08/21 02:09:14;;;;;;;6.70;5.03;;;18.80;73.50;;;;;;1082344;54;20031;-69
2021/08/21 02:10:35;;;;;;;5.80;5.20;;;18.70;73.40;;;;;;1082504;54;20046;-69
2021/08/21 02:11:57;;;;;;;6.25;5.18;;;18.80;73.50;;;;;;1081999;54;20050;-70
2021/08/21 02:13:18;;;;;;;5.85;5.35;;;18.80;73.60;;;;;;1082156;54;20038;-70
2021/08/21 02:14:39;;;;;;;5.95;5.45;;;18.80;73.60;;;;;;1082682;54;20022;-70
2021/08/21 02:16:00;;;;;;;6.20;4.78;;;18.70;73.50;;;;;;1082611;54;20023;-69
2021/08/21 02:17:21;;;;;;;7.03;4.93;;;18.70;73.50;;;;;;1082527;47;20057;-69
2021/08/21 02:18:42;;;;;;;6.18;5.40;;;18.70;73.50;;;;;;1082430;54;20038;-69
2021/08/21 02:20:11;;;;;;;5.82;5.30;;;18.70;73.60;;;;;;1082589;54;20030;-69
2021/08/21 02:21:32;;;;;;;5.80;5.05;;;18.70;73.70;;;;;;1082152;54;20546;-69
2021/08/21 02:22:53;;;;;;;5.95;5.20;;;18.70;73.60;;;;;;1082541;39;20453;-69
2021/08/21 02:24:15;;;;;;;6.10;5.50;;;18.70;73.60;;;;;;1082303;54;20026;-69
2021/08/21 02:25:36;;;;;;;6.10;5.30;;;18.60;73.60;;;;;;1082679;39;20445;-69
2021/08/21 02:27:00;;;;;;;6.97;6.25;;;18.60;73.60;;;;;;1082106;54;20513;-69
2021/08/21 02:28:21;;;;;;;7.93;5.60;;;18.60;73.70;;;;;;1082127;54;20030;-69
2021/08/21 02:29:42;;;;;;;6.22;5.63;;;18.60;73.70;;;;;;1082375;39;20698;-69
2021/08/21 02:31:02;;;;;;;7.13;5.47;;;18.60;73.80;;;;;;1082531;54;20062;-69
2021/08/21 02:32:23;;;;;;;7.68;6.30;;;18.60;73.90;;;;;;1082864;39;20390;-70
2021/08/21 02:33:44;;;;;;;6.68;5.70;;;18.60;73.90;;;;;;1082099;54;20042;-69
2021/08/21 02:35:05;;;;;;;8.38;5.32;;;18.60;74.00;;;;;;1082215;47;20038;-69
2021/08/21 02:36:26;;;;;;;6.38;5.75;;;18.60;74.10;;;;;;1082328;54;20046;-69
2021/08/21 02:37:47;;;;;;;6.55;5.47;;;18.60;74.30;;;;;;1082777;54;20038;-69
2021/08/21 02:39:09;;;;;;;6.30;5.63;;;18.60;74.40;;;;;;1082535;54;20071;-70
2021/08/21 02:40:30;;;;;;;7.03;5.57;;;18.50;74.40;;;;;;1082208;54;20034;-69
2021/08/21 02:41:51;;;;;;;6.28;5.50;;;18.50;74.40;;;;;;1082494;54;20023;-70
2021/08/21 02:43:13;;;;;;;6.30;5.38;;;18.50;74.40;;;;;;1082417;54;20031;-69
2021/08/21 02:44:34;;;;;;;6.25;5.07;;;18.50;74.40;;;;;;1082379;52;20042;-70
2021/08/21 02:45:55;;;;;;;7.65;5.72;;;18.50;74.50;;;;;;1082018;54;20114;-69
2021/08/21 02:47:16;;;;;;;6.57;5.80;;;18.50;74.40;;;;;;1082531;54;20031;-69
2021/08/21 02:48:36;;;;;;;6.20;5.55;;;18.50;74.50;;;;;;1082566;54;20046;-70
2021/08/21 02:49:57;;;;;;;6.82;5.45;;;18.50;74.50;;;;;;1082341;54;20050;-70
2021/08/21 02:51:18;;;;;;;6.43;5.72;;;18.50;74.60;;;;;;1082099;54;20510;-70
2021/08/21 02:52:39;;;;;;;5.70;4.90;;;18.50;74.60;;;;;;1082795;54;20133;-70
2021/08/21 02:54:00;;;;;;;6.95;5.32;;;18.50;74.70;;;;;;1082261;54;20031;-69
2021/08/21 02:55:21;;;;;;;8.02;5.68;;;18.50;74.70;;;;;;1082010;54;20596;-69
2021/08/21 02:56:42;;;;;;;5.90;5.10;;;18.50;74.70;;;;;;1082322;54;20027;-69
2021/08/21 02:58:03;;;;;;;7.72;5.38;;;18.50;74.70;;;;;;1082613;54;20035;-69
2021/08/21 02:59:23;;;;;;;6.70;5.03;;;18.50;74.70;;;;;;1082482;47;20779;-69
2021/08/21 03:00:44;;;;;;;6.70;4.57;;;18.50;74.80;;;;;;1082123;54;20039;-69
2021/08/21 03:02:07;;;;;;;7.35;4.63;;;18.50;75.50;;;;;;1082326;54;20026;-69
2021/08/21 03:03:28;;;;;;;6.05;4.93;;;18.50;74.80;;;;;;1083154;39;20371;-69
2021/08/21 03:04:49;;;;;;;6.85;5.40;;;18.50;74.80;;;;;;1082640;54;20027;-70
2021/08/21 03:06:10;;;;;;;7.82;5.03;;;18.50;74.80;;;;;;1082341;54;20023;-69
2021/08/21 03:07:30;;;;;;;5.60;4.70;;;18.50;74.90;;;;;;1082800;54;20118;-70
2021/08/21 03:08:51;;;;;;;7.60;5.20;;;18.50;75.00;;;;;;1083073;54;20046;-70
2021/08/21 03:10:13;;;;;;;6.18;5.18;;;18.50;75.00;;;;;;1083193;39;20398;-69
2021/08/21 03:11:34;;;;;;;5.80;4.65;;;18.50;75.10;;;;;;1082055;54;20034;-70
2021/08/21 03:12:55;;;;;;;7.75;5.00;;;18.50;75.30;;;;;;1082336;54;20897;-69
2021/08/21 03:14:16;;;;;;;7.53;5.00;;;18.50;75.00;;;;;;1083079;54;20019;-69
2021/08/21 03:15:37;;;;;;;6.93;4.65;;;18.50;75.00;;;;;;1082690;54;20042;-69
2021/08/21 03:16:57;;;;;;;7.05;4.90;;;18.50;75.70;;;;;;1082437;54;20038;-69
2021/08/21 03:18:18;;;;;;;5.97;4.65;;;18.50;75.10;;;;;;1082437;54;20557;-69
2021/08/21 03:19:41;;;;;;;6.80;5.85;;;18.50;75.00;;;;;;1082728;54;20038;-69
2021/08/21 03:21:02;;;;;;;6.30;5.00;;;18.50;75.10;;;;;;1082818;54;20030;-69
2021/08/21 03:22:23;;;;;;;5.85;4.90;;;18.50;75.20;;;;;;1083080;39;20343;-69
2021/08/21 03:23:44;;;;;;;7.60;4.80;;;18.50;75.30;;;;;;1082612;54;20062;-69
2021/08/21 03:25:05;;;;;;;5.60;5.00;;;18.50;75.40;;;;;;1082496;54;20023;-69
2021/08/21 03:26:26;;;;;;;5.55;4.82;;;18.50;75.50;;;;;;1082439;54;20126;-69
2021/08/21 03:27:47;;;;;;;7.65;5.25;;;18.50;75.70;;;;;;1082730;54;20058;-69
2021/08/21 03:29:09;;;;;;;5.43;4.57;;;18.60;75.80;;;;;;1082787;54;20038;-69
2021/08/21 03:30:30;;;;;;;8.15;5.13;;;18.60;75.70;;;;;;1082671;54;20034;-69
2021/08/21 03:31:51;;;;;;;5.45;4.78;;;18.50;75.80;;;;;;1082643;54;20023;-69
2021/08/21 03:33:12;;;;;;;6.18;5.15;;;18.60;75.80;;;;;;1082607;39;20754;-69
2021/08/21 03:34:34;;;;;;;8.18;5.95;;;18.60;75.90;;;;;;1082545;54;20487;-69
2021/08/21 03:35:55;;;;;;;6.03;5.40;;;18.60;76.10;;;;;;1083036;39;20668;-69
2021/08/21 03:37:16;;;;;;;6.22;5.63;;;18.60;76.20;;;;;;1082603;54;20033;-69
2021/08/21 03:38:37;;;;;;;6.60;5.45;;;18.60;76.20;;;;;;1082670;54;20042;-69
2021/08/21 03:39:58;;;;;;;5.68;5.10;;;18.60;76.20;;;;;;1082467;47;20054;-69
2021/08/21 03:41:19;;;;;;;6.85;5.70;;;18.60;76.20;;;;;;1082735;54;20608;-69
2021/08/21 03:42:39;;;;;;;5.85;5.03;;;18.60;76.20;;;;;;1082498;54;20026;-69
2021/08/21 03:44:00;;;;;;;5.70;5.20;;;18.60;76.20;;;;;;1082434;54;20030;-69
2021/08/21 03:45:21;;;;;;;5.85;5.10;;;18.60;76.10;;;;;;1082534;54;20042;-69
2021/08/21 03:46:42;;;;;;;5.47;4.93;;;18.70;76.30;;;;;;1083203;39;20446;-69
2021/08/21 03:48:03;;;;;;;6.38;4.78;;;18.70;76.20;;;;;;1082671;54;20046;-69
2021/08/21 03:49:24;;;;;;;6.15;5.07;;;18.70;76.20;;;;;;1082500;54;20022;-69
2021/08/21 03:50:45;;;;;;;5.72;5.10;;;18.70;76.20;;;;;;1082650;54;20494;-70
2021/08/21 03:52:06;;;;;;;5.75;4.97;;;18.70;76.10;;;;;;1082790;54;20038;-70
2021/08/21 03:53:27;;;;;;;5.97;5.25;;;18.70;76.10;;;;;;1082272;54;20038;-70
2021/08/21 03:54:48;;;;;;;5.85;4.95;;;18.70;76.20;;;;;;1082400;54;20420;-69
2021/08/21 03:56:09;;;;;;;5.95;5.05;;;18.80;76.20;;;;;;1082819;54;20027;-69
2021/08/21 03:57:29;;;;;;;7.50;5.00;;;18.80;76.20;;;;;;1082858;39;20089;-69
2021/08/21 03:58:50;;;;;;;6.05;4.53;;;18.80;76.20;;;;;;1082588;54;20033;-69
2021/08/21 04:00:12;;;;;;;5.25;4.82;;;18.80;76.10;;;;;;1082502;54;20035;-69
2021/08/21 04:01:34;;;;;;;5.75;5.03;;;18.80;76.00;;;;;;1082571;54;20050;-70
2021/08/21 04:02:55;;;;;;;5.90;4.75;;;18.80;76.00;;;;;;1082836;54;20026;-69
2021/08/21 04:04:16;;;;;;;5.95;5.35;;;18.80;75.90;;;;;;1082431;54;20034;-69
2021/08/21 04:05:37;;;;;;;5.35;4.85;;;18.80;75.90;;;;;;1082385;54;20065;-69
2021/08/21 04:06:57;;;;;;;6.25;5.00;;;18.90;75.90;;;;;;1082459;54;20820;-69
2021/08/21 04:08:18;;;;;;;5.85;4.60;;;18.80;75.90;;;;;;1082610;54;20777;-69
2021/08/21 04:09:39;;;;;;;5.35;4.82;;;18.80;75.80;;;;;;1082712;54;20067;-69
2021/08/21 04:11:00;;;;;;;6.28;4.63;;;18.90;75.90;;;;;;1082573;54;20114;-69
2021/08/21 04:12:21;;;;;;;7.35;5.03;;;18.90;75.90;;;;;;1082438;54;20037;-69
2021/08/21 04:13:42;;;;;;;6.65;5.30;;;18.90;76.00;;;;;;1082599;54;20612;-69
2021/08/21 04:15:03;;;;;;;7.47;5.13;;;18.90;76.70;;;;;;1082098;54;20031;-69
2021/08/21 04:16:24;;;;;;;6.38;5.35;;;18.90;76.00;;;;;;1082623;54;20034;-69
2021/08/21 04:17:45;;;;;;;6.22;5.07;;;18.90;76.10;;;;;;1082966;54;20029;-69
2021/08/21 04:19:05;;;;;;;6.03;4.93;;;18.90;76.20;;;;;;1082519;54;20042;-69
2021/08/21 04:20:26;;;;;;;6.95;5.38;;;18.90;76.10;;;;;;1082275;54;20034;-69
2021/08/21 04:21:47;;;;;;;6.72;5.03;;;18.90;76.10;;;;;;1083013;39;20482;-69
2021/08/21 04:23:11;;;;;;;6.20;5.28;;;18.90;76.00;;;;;;1083443;39;20756;-69
2021/08/21 04:24:32;;;;;;;8.60;4.80;;;18.90;76.00;;;;;;1082800;54;20046;-69
2021/08/21 04:25:59;;;;;;;6.07;4.95;;;18.90;76.10;;;;;;1082101;54;20034;-69
2021/08/21 04:27:20;;;;;;;7.20;4.93;;;18.90;76.20;;;;;;1082325;54;20031;-69
2021/08/21 04:28:41;;;;;;;10.52;5.05;;;18.90;76.10;;;;;;1082710;54;20027;-69
2021/08/21 04:30:02;;;;;;;7.90;5.30;;;19.00;76.20;;;;;;1082048;54;20041;-69
2021/08/21 04:31:23;;;;;;;6.60;4.70;;;18.90;76.20;;;;;;1082271;54;20042;-70
2021/08/21 04:32:44;;;;;;;7.22;4.88;;;18.90;76.20;;;;;;1082258;54;20041;-69
2021/08/21 04:34:05;;;;;;;12.07;5.70;;;18.90;76.20;;;;;;1082664;54;20045;-69
2021/08/21 04:35:26;;;;;;;5.90;5.20;;;18.90;76.30;;;;;;1082657;54;20029;-69
2021/08/21 04:36:46;;;;;;;7.03;4.53;;;19.00;76.40;;;;;;1082370;54;20086;-69
2021/08/21 04:38:07;;;;;;;8.95;5.45;;;18.90;76.40;;;;;;1082727;54;20038;-69
2021/08/21 04:39:28;;;;;;;7.20;5.25;;;18.90;76.40;;;;;;1082885;54;20034;-69
2021/08/21 04:40:49;;;;;;;9.00;5.00;;;19.00;76.50;;;;;;1082446;54;20049;-69
2021/08/21 04:42:10;;;;;;;7.07;5.25;;;19.00;76.50;;;;;;1082231;54;20178;-69
2021/08/21 04:43:31;;;;;;;9.85;5.68;;;19.00;76.50;;;;;;1082356;54;20038;-69
2021/08/21 04:44:52;;;;;;;7.18;4.85;;;19.00;76.50;;;;;;1082865;54;20030;-69
2021/08/21 04:46:13;;;;;;;14.52;5.03;;;19.00;77.20;;;;;;1082464;54;20494;-69
2021/08/21 04:47:34;;;;;;;5.72;4.95;;;19.00;76.50;;;;;;1082396;54;20068;-69
2021/08/21 04:48:55;;;;;;;6.03;4.93;;;18.90;76.50;;;;;;1082617;54;20037;-69
2021/08/21 04:50:16;;;;;;;5.35;4.25;;;19.00;76.70;;;;;;1083132;39;20374;-69
2021/08/21 04:51:36;;;;;;;7.30;4.82;;;19.00;76.60;;;;;;1082339;54;20037;-69
2021/08/21 04:52:57;;;;;;;8.57;4.90;;;19.00;76.70;;;;;;1082438;54;20061;-69
2021/08/21 04:54:18;;;;;;;5.95;4.20;;;19.00;76.70;;;;;;1082705;54;20022;-69
2021/08/21 04:55:39;;;;;;;7.20;4.72;;;19.00;76.70;;;;;;1082456;54;20133;-69
2021/08/21 04:57:00;;;;;;;5.20;4.70;;;19.00;76.70;;;;;;1082549;54;20060;-69
2021/08/21 04:58:21;;;;;;;8.68;4.70;;;19.00;76.70;;;;;;1082370;54;20022;-69
2021/08/21 04:59:42;;;;;;;8.23;5.30;;;19.00;76.80;;;;;;1083054;54;20049;-69
2021/08/21 05:01:03;;;;;;;9.20;4.88;;;19.00;76.80;;;;;;1082338;54;20030;-69
2021/08/21 05:02:23;;;;;;;8.23;4.97;;;19.00;76.80;;;;;;1082623;54;20121;-69
2021/08/21 05:03:44;;;;;;;5.65;4.47;;;19.00;76.90;;;;;;1082322;54;20062;-69
2021/08/21 05:05:05;;;;;;;7.78;4.97;;;19.00;76.90;;;;;;1082844;54;20034;-69
2021/08/21 05:06:26;;;;;;;7.57;4.80;;;19.00;76.90;;;;;;1082913;54;20030;-69
2021/08/21 05:07:47;;;;;;;6.45;4.95;;;19.00;77.00;;;;;;1083889;31;20461;-69
2021/08/21 05:09:08;;;;;;;8.07;4.65;;;19.00;76.90;;;;;;1082276;54;20049;-69
2021/08/21 05:10:29;;;;;;;10.20;5.50;;;19.00;77.10;;;;;;1082497;54;20023;-69
2021/08/21 05:11:50;;;;;;;5.68;4.60;;;19.00;77.10;;;;;;1082476;54;20091;-69
2021/08/21 05:13:11;;;;;;;10.00;5.30;;;19.00;77.10;;;;;;1082232;47;20033;-69
2021/08/21 05:14:32;;;;;;;7.32;4.70;;;19.00;77.10;;;;;;1082343;54;20505;-69
2021/08/21 05:15:53;;;;;;;6.47;4.85;;;19.00;77.20;;;;;;1082650;54;20030;-70
2021/08/21 05:17:14;;;;;;;8.00;4.47;;;19.00;77.20;;;;;;1082636;54;20033;-69
2021/08/21 05:18:38;;;;;;;7.57;4.53;;;19.00;77.30;;;;;;1082443;54;20514;-69
2021/08/21 05:20:15;;;;;;;8.93;4.60;;;19.00;77.40;;;;;;1082709;54;20041;-69
2021/08/21 05:21:46;;;;;;;9.75;4.38;;;19.00;77.40;;;;;;1083399;39;20566;-69
2021/08/21 05:23:13;;;;;;;5.35;4.28;;;19.00;77.40;;;;;;1082661;54;20038;-69
2021/08/21 05:24:34;;;;;;;6.90;4.35;;;19.00;77.40;;;;;;1083327;39;20402;-69
2021/08/21 05:25:55;;;;;;;6.88;4.78;;;19.00;77.40;;;;;;1082860;39;20470;-69
2021/08/21 05:27:17;;;;;;;5.43;4.35;;;19.00;78.20;;;;;;1083172;31;20505;-69
2021/08/21 05:28:38;;;;;;;5.35;4.47;;;19.10;77.60;;;;;;1082902;54;20026;-69
2021/08/21 05:30:00;;;;;;;5.80;4.57;;;19.10;77.60;;;;;;1082849;54;20045;-70
2021/08/21 05:31:22;;;;;;;6.25;4.75;;;19.10;77.70;;;;;;1081956;54;20059;-69
2021/08/21 05:32:43;;;;;;;7.53;4.53;;;19.10;77.80;;;;;;1082272;54;20042;-69
2021/08/21 05:34:04;;;;;;;8.65;4.88;;;19.10;77.80;;;;;;1082777;54;20026;-69
2021/08/21 05:35:25;;;;;;;7.05;4.35;;;19.10;77.80;;;;;;1083203;39;20691;-70
2021/08/21 05:36:47;;;;;;;8.82;4.55;;;19.10;77.90;;;;;;1082224;54;20038;-70
2021/08/21 05:38:08;;;;;;;6.32;4.43;;;19.10;77.90;;;;;;1082354;54;20022;-70
2021/08/21 05:39:32;;;;;;;7.00;4.25;;;19.10;77.90;;;;;;1082465;54;20022;-69
2021/08/21 05:40:53;;;;;;;5.32;4.13;;;19.10;77.90;;;;;;1082753;54;20069;-69
2021/08/21 05:42:13;;;;;;;7.75;4.72;;;19.20;78.00;;;;;;1082503;54;20034;-70
2021/08/21 05:43:35;;;;;;;5.22;4.47;;;19.20;78.00;;;;;;1082058;54;20038;-69
2021/08/21 05:44:56;;;;;;;5.75;3.97;;;19.20;78.00;;;;;;1082596;54;20106;-69
2021/08/21 05:46:16;;;;;;;5.78;4.25;;;19.20;78.00;;;;;;1082350;54;20035;-70
2021/08/21 05:47:37;;;;;;;5.32;4.40;;;19.20;78.00;;;;;;1082368;54;20029;-69
2021/08/21 05:48:58;;;;;;;6.93;4.72;;;19.20;78.00;;;;;;1082539;54;20022;-69
2021/08/21 05:50:21;;;;;;;5.72;4.75;;;19.20;77.90;;;;;;1082608;47;20065;-69
2021/08/21 05:51:42;;;;;;;5.65;4.85;;;19.30;78.00;;;;;;1082390;54;20022;-70
2021/08/21 05:53:04;;;;;;;6.65;4.57;;;19.30;78.00;;;;;;1082290;54;20030;-70
2021/08/21 05:54:25;;;;;;;6.60;4.68;;;19.20;77.90;;;;;;1082494;54;20022;-70
2021/08/21 05:55:46;;;;;;;7.10;4.90;;;19.30;77.90;;;;;;1082441;54;20021;-69
2021/08/21 05:57:07;;;;;;;8.25;6.45;;;19.30;78.00;;;;;;1082484;54;20022;-69
2021/08/21 05:58:28;;;;;;;11.50;7.47;;;19.30;77.90;;;;;;1081887;54;20038;-70
2021/08/21 05:59:49;;;;;;;10.38;8.05;;;19.30;77.90;;;;;;1083047;31;20458;-70
2021/08/21 06:01:10;;;;;;;9.18;7.43;;;19.30;77.90;;;;;;1082418;54;20660;-69
2021/08/21 06:02:31;;;;;;;9.90;8.43;;;19.30;77.80;;;;;;1082819;54;20026;-69
2021/08/21 06:03:52;;;;;;;9.50;8.48;;;19.30;77.80;;;;;;1082437;54;20522;-69
2021/08/21 06:05:12;;;;;;;8.80;7.90;;;19.30;77.80;;;;;;1082353;54;20046;-69
2021/08/21 06:06:34;;;;;;;9.35;8.15;;;19.30;77.80;;;;;;1082675;54;20037;-70
2021/08/21 06:07:55;;;;;;;10.43;8.52;;;19.30;77.80;;;;;;1082261;54;20023;-70
2021/08/21 06:09:20;;;;;;;10.00;7.95;;;19.30;77.80;;;;;;1082510;54;20128;-69
2021/08/21 06:10:42;;;;;;;10.43;7.55;;;19.30;77.90;;;;;;1082444;54;20042;-69
2021/08/21 06:12:04;;;;;;;10.57;7.78;;;19.30;78.00;;;;;;1082333;54;20035;-69
2021/08/21 06:13:24;;;;;;;11.75;7.43;;;19.30;77.90;;;;;;1082049;54;20029;-70
2021/08/21 06:14:45;;;;;;;9.10;7.07;;;19.30;78.00;;;;;;1082488;54;20029;-70
2021/08/21 06:16:06;;;;;;;9.90;7.00;;;19.30;78.00;;;;;;1081873;47;20069;-70
2021/08/21 06:17:27;;;;;;;10.40;6.18;;;19.30;78.00;;;;;;1082526;54;20026;-69
2021/08/21 06:18:48;;;;;;;8.75;6.05;;;19.30;78.10;;;;;;1082447;54;20071;-69
2021/08/21 06:20:10;;;;;;;6.55;5.88;;;19.30;78.10;;;;;;1082951;31;20534;-69
2021/08/21 06:21:31;;;;;;;9.32;6.03;;;19.30;78.10;;;;;;1082310;54;20042;-69
2021/08/21 06:22:52;;;;;;;10.20;6.18;;;19.30;78.10;;;;;;1082589;54;20040;-69
2021/08/21 06:24:12;;;;;;;6.90;5.55;;;19.30;78.20;;;;;;1082565;54;20109;-70
2021/08/21 06:25:33;;;;;;;7.60;5.47;;;19.30;78.30;;;;;;1082236;54;20038;-70
2021/08/21 06:26:54;;;;;;;8.13;5.40;;;19.30;78.20;;;;;;1082378;54;20030;-69
2021/08/21 06:28:15;;;;;;;7.07;5.28;;;19.30;78.30;;;;;;1082657;54;20023;-69
2021/08/21 06:29:36;;;;;;;9.35;5.78;;;19.30;78.30;;;;;;1082250;54;20502;-69
2021/08/21 06:30:57;;;;;;;6.78;5.35;;;19.30;78.40;;;;;;1082179;54;20038;-69
2021/08/21 06:32:18;;;;;;;9.73;4.93;;;19.30;78.50;;;;;;1082444;54;20027;-70
2021/08/21 06:33:39;;;;;;;6.32;4.60;;;19.40;78.50;;;;;;1082556;54;20598;-69
2021/08/21 06:35:00;;;;;;;6.05;4.80;;;19.40;78.60;;;;;;1081912;54;20038;-70
2021/08/21 06:36:21;;;;;;;5.05;4.47;;;19.40;78.60;;;;;;1082041;54;20559;-69
2021/08/21 06:37:42;;;;;;;6.65;4.93;;;19.40;78.60;;;;;;1082231;54;20042;-69
2021/08/21 06:39:03;;;;;;;5.93;4.88;;;19.40;78.70;;;;;;1082872;54;20515;-69
2021/08/21 06:40:24;;;;;;;6.15;4.57;;;19.40;78.80;;;;;;1082931;54;20030;-69
2021/08/21 06:41:45;;;;;;;7.07;4.80;;;19.50;79.00;;;;;;1082501;54;20026;-69
2021/08/21 06:43:06;;;;;;;5.60;3.92;;;19.50;79.10;;;;;;1082673;54;20157;-69
2021/08/21 06:44:27;;;;;;;4.20;3.67;;;19.50;79.10;;;;;;1082929;54;20564;-70
2021/08/21 06:45:48;;;;;;;4.70;4.20;;;19.50;79.20;;;;;;1082697;54;20069;-69
2021/08/21 06:47:09;;;;;;;5.30;4.05;;;19.60;79.20;;;;;;1082655;54;20045;-69
2021/08/21 06:48:32;;;;;;;5.68;4.18;;;19.60;79.20;;;;;;1082867;54;20057;-70
2021/08/21 06:49:53;;;;;;;6.95;4.30;;;19.70;79.20;;;;;;1082958;54;20038;-69
2021/08/21 06:51:14;;;;;;;5.45;4.35;;;19.60;79.10;;;;;;1082157;54;20063;-69
2021/08/21 06:52:35;;;;;;;5.78;4.03;;;19.70;79.10;;;;;;1082295;54;20402;-69
2021/08/21 06:53:55;;;;;;;5.15;3.85;;;19.70;79.10;;;;;;1082575;54;20163;-69
2021/08/21 06:55:16;;;;;;;4.80;3.60;;;19.70;79.30;;;;;;1082322;54;20071;-69
2021/08/21 06:56:37;;;;;;;4.82;4.28;;;19.80;79.40;;;;;;1082095;54;20035;-69
2021/08/21 06:57:58;;;;;;;4.25;3.65;;;19.80;79.50;;;;;;1082323;54;20664;-69
2021/08/21 06:59:20;;;;;;;5.70;4.28;;;19.80;79.50;;;;;;1082719;54;20027;-69
2021/08/21 07:00:40;;;;;;;7.38;3.65;;;19.90;79.60;;;;;;1082995;54;20030;-69
2021/08/21 07:02:03;;;;;;;4.15;3.75;;;19.90;79.50;;;;;;1082565;54;20031;-70
2021/08/21 07:03:24;;;;;;;6.95;3.97;;;20.00;79.50;;;;;;1082455;54;20087;-69